createdAt,value
2018-06-02T00:00:47.291Z,21.19
2018-06-02T00:01:48.677Z,21.12
2018-06-02T00:02:50.071Z,21.15
2018-06-02T00:03:51.455Z,21.19
2018-06-02T00:04:52.854Z,21.19
2018-06-02T00:05:54.239Z,21.24
2018-06-02T00:06:55.634Z,21.15
2018-06-02T00:07:57.008Z,21.19
2018-06-02T00:08:58.407Z,21.16
2018-06-02T00:09:59.794Z,21.16
2018-06-02T00:11:01.202Z,21.21
2018-06-02T00:12:02.577Z,21.12
2018-06-02T00:13:03.965Z,21.21
2018-06-02T00:14:05.366Z,21.13
2018-06-02T00:15:06.750Z,21.15
2018-06-02T00:16:08.140Z,21.13
2018-06-02T00:17:09.527Z,21.15
2018-06-02T00:18:10.912Z,21.11
2018-06-02T00:19:12.312Z,21.13
2018-06-02T00:20:13.712Z,21.18
2018-06-02T00:21:15.108Z,21.24
2018-06-02T00:22:16.488Z,21.12
2018-06-02T00:23:17.879Z,21.05
2018-06-02T00:24:19.294Z,21.18
2018-06-02T00:25:20.673Z,21.18
2018-06-02T00:26:22.067Z,21.15
2018-06-02T00:27:23.496Z,21.22
2018-06-02T00:28:24.883Z,21.09
2018-06-02T00:29:26.273Z,21.12
2018-06-02T00:30:27.671Z,21.15
2018-06-02T00:31:29.047Z,21.11
2018-06-02T00:32:30.448Z,21.08
2018-06-02T00:33:32.805Z,21.09
2018-06-02T00:34:34.199Z,21.05
2018-06-02T00:35:35.587Z,21.09
2018-06-02T00:36:36.986Z,21.03
2018-06-02T00:37:38.379Z,21.03
2018-06-02T00:38:39.761Z,20.98
2018-06-02T00:39:41.151Z,20.98
2018-06-02T00:40:42.532Z,20.94
2018-06-02T00:41:43.924Z,21.01
2018-06-02T00:42:45.326Z,21.00
2018-06-02T00:43:46.714Z,20.97
2018-06-02T00:44:48.104Z,20.96
2018-06-02T00:45:49.486Z,20.83
2018-06-02T00:46:50.882Z,20.97
2018-06-02T00:47:52.270Z,20.88
2018-06-02T00:48:53.660Z,20.82
2018-06-02T00:49:55.044Z,20.83
2018-06-02T00:50:56.437Z,20.81
2018-06-02T00:51:57.823Z,20.76
2018-06-02T00:52:59.229Z,20.79
2018-06-02T00:54:00.614Z,20.78
2018-06-02T00:55:02.007Z,20.78
2018-06-02T00:56:03.402Z,20.78
2018-06-02T00:57:04.787Z,20.76
2018-06-02T00:58:06.188Z,20.78
2018-06-02T00:59:07.585Z,20.78
2018-06-02T01:00:08.965Z,20.66
2018-06-02T01:01:10.360Z,20.63
2018-06-02T01:02:11.751Z,20.66
2018-06-02T01:03:13.144Z,20.66
2018-06-02T01:04:14.540Z,20.60
2018-06-02T01:05:15.932Z,20.61
2018-06-02T01:06:17.318Z,20.56
2018-06-02T01:07:18.736Z,20.63
2018-06-02T01:08:20.140Z,20.63
2018-06-02T01:09:21.528Z,20.60
2018-06-02T01:10:22.912Z,20.53
2018-06-02T01:11:24.288Z,20.54
2018-06-02T01:12:25.696Z,20.51
2018-06-02T01:13:27.105Z,20.38
2018-06-02T01:14:28.493Z,20.37
2018-06-02T01:15:29.887Z,20.41
2018-06-02T01:16:31.318Z,20.31
2018-06-02T01:17:32.698Z,20.37
2018-06-02T01:18:34.092Z,20.37
2018-06-02T01:19:35.472Z,20.42
2018-06-02T01:20:36.876Z,20.40
2018-06-02T01:21:38.263Z,20.37
2018-06-02T01:22:39.653Z,20.33
2018-06-02T01:23:41.025Z,20.35
2018-06-02T01:24:42.435Z,20.35
2018-06-02T01:25:43.821Z,20.34
2018-06-02T01:26:45.203Z,20.30
2018-06-02T01:27:46.609Z,20.37
2018-06-02T01:28:47.986Z,20.33
2018-06-02T01:29:49.379Z,20.31
2018-06-02T01:30:50.770Z,20.27
2018-06-02T01:31:52.160Z,20.23
2018-06-02T01:32:53.547Z,20.34
2018-06-02T01:33:54.947Z,20.38
2018-06-02T01:34:56.331Z,20.31
2018-06-02T01:35:57.733Z,20.34
2018-06-02T01:36:59.121Z,20.26
2018-06-02T01:38:00.514Z,20.37
2018-06-02T01:39:01.909Z,20.37
2018-06-02T01:40:03.290Z,20.33
2018-06-02T01:41:04.688Z,20.34
2018-06-02T01:42:06.081Z,20.31
2018-06-02T01:43:07.469Z,20.31
2018-06-02T01:44:08.860Z,20.25
2018-06-02T01:45:10.247Z,20.26
2018-06-02T01:46:11.635Z,20.33
2018-06-02T01:47:13.021Z,20.25
2018-06-02T01:48:14.400Z,20.30
2018-06-02T01:49:15.786Z,20.25
2018-06-02T01:50:17.182Z,20.31
2018-06-02T01:51:18.575Z,20.22
2018-06-02T01:52:19.964Z,20.23
2018-06-02T01:53:21.357Z,20.25
2018-06-02T01:54:22.740Z,20.26
2018-06-02T01:55:24.141Z,20.34
2018-06-02T01:56:25.519Z,20.34
2018-06-02T01:57:26.903Z,20.30
2018-06-02T01:58:28.293Z,20.37
2018-06-02T01:59:29.691Z,20.27
2018-06-02T02:00:31.072Z,20.33
2018-06-02T02:01:32.451Z,20.40
2018-06-02T02:02:34.328Z,20.37
2018-06-02T02:03:35.727Z,20.37
2018-06-02T02:04:37.110Z,20.33
2018-06-02T02:05:38.504Z,20.30
2018-06-02T02:06:39.896Z,20.37
2018-06-02T02:07:41.293Z,20.27
2018-06-02T02:08:42.680Z,20.35
2018-06-02T02:09:44.070Z,20.38
2018-06-02T02:10:45.470Z,20.35
2018-06-02T02:11:46.855Z,20.37
2018-06-02T02:12:48.268Z,20.34
2018-06-02T02:13:49.660Z,20.33
2018-06-02T02:14:51.060Z,20.37
2018-06-02T02:15:52.445Z,20.42
2018-06-02T02:16:53.835Z,20.35
2018-06-02T02:17:55.223Z,20.38
2018-06-02T02:18:56.618Z,20.34
2018-06-02T02:19:58.013Z,20.33
2018-06-02T02:20:59.400Z,20.34
2018-06-02T02:22:00.819Z,20.31
2018-06-02T02:23:02.207Z,20.34
2018-06-02T02:24:03.589Z,20.31
2018-06-02T02:25:04.971Z,20.35
2018-06-02T02:26:06.359Z,20.35
2018-06-02T02:27:07.748Z,20.34
2018-06-02T02:28:09.139Z,20.31
2018-06-02T02:29:10.542Z,20.35
2018-06-02T02:30:11.927Z,20.31
2018-06-02T02:31:13.839Z,20.35
2018-06-02T02:32:15.227Z,20.35
2018-06-02T02:33:16.622Z,20.25
2018-06-02T02:34:18.022Z,20.26
2018-06-02T02:35:19.402Z,20.30
2018-06-02T02:36:20.785Z,20.26
2018-06-02T02:37:22.214Z,20.27
2018-06-02T02:38:23.604Z,20.27
2018-06-02T02:39:24.998Z,20.25
2018-06-02T02:40:26.392Z,20.33
2018-06-02T02:41:27.774Z,20.31
2018-06-02T02:42:29.188Z,20.31
2018-06-02T02:43:30.576Z,20.33
2018-06-02T02:44:31.971Z,20.31
2018-06-02T02:45:33.358Z,20.31
2018-06-02T02:46:34.743Z,20.30
2018-06-02T02:47:36.136Z,20.35
2018-06-02T02:48:37.525Z,20.35
2018-06-02T02:49:38.914Z,20.33
2018-06-02T02:50:40.302Z,20.38
2018-06-02T02:51:41.699Z,20.34
2018-06-02T02:52:43.080Z,20.37
2018-06-02T02:53:44.473Z,20.38
2018-06-02T02:54:45.872Z,20.38
2018-06-02T02:55:47.267Z,20.37
2018-06-02T02:56:49.107Z,20.35
2018-06-02T02:57:50.007Z,20.38
2018-06-02T02:58:51.393Z,20.37
2018-06-02T02:59:52.785Z,20.38
2018-06-02T03:00:54.181Z,20.38
2018-06-02T03:01:55.569Z,20.31
2018-06-02T03:02:56.960Z,20.30
2018-06-02T03:03:58.355Z,20.34
2018-06-02T03:04:59.742Z,20.30
2018-06-02T03:06:01.140Z,20.33
2018-06-02T03:07:02.522Z,20.33
2018-06-02T03:08:03.913Z,20.33
2018-06-02T03:09:05.310Z,20.35
2018-06-02T03:10:06.716Z,20.34
2018-06-02T03:11:08.105Z,20.35
2018-06-02T03:12:09.500Z,20.34
2018-06-02T03:13:10.892Z,20.40
2018-06-02T03:14:12.282Z,20.40
2018-06-02T03:15:13.682Z,20.38
2018-06-02T03:16:15.073Z,20.42
2018-06-02T03:17:16.471Z,20.35
2018-06-02T03:18:17.848Z,20.40
2018-06-02T03:19:19.240Z,20.40
2018-06-02T03:20:20.636Z,20.34
2018-06-02T03:21:22.021Z,20.42
2018-06-02T03:22:23.403Z,20.38
2018-06-02T03:23:24.803Z,20.38
2018-06-02T03:24:26.189Z,20.37
2018-06-02T03:25:27.581Z,20.50
2018-06-02T03:26:28.982Z,20.53
2018-06-02T03:27:30.367Z,20.40
2018-06-02T03:28:31.768Z,20.54
2018-06-02T03:29:34.083Z,20.41
2018-06-02T03:30:35.479Z,20.51
2018-06-02T03:31:36.873Z,20.50
2018-06-02T03:32:38.259Z,20.58
2018-06-02T03:33:39.645Z,20.48
2018-06-02T03:34:41.052Z,20.51
2018-06-02T03:35:42.443Z,20.48
2018-06-02T03:36:43.846Z,20.53
2018-06-02T03:37:45.233Z,20.57
2018-06-02T03:38:46.624Z,20.44
2018-06-02T03:39:48.023Z,20.53
2018-06-02T03:40:49.425Z,20.48
2018-06-02T03:41:50.818Z,20.50
2018-06-02T03:42:52.208Z,20.51
2018-06-02T03:43:53.600Z,20.63
2018-06-02T03:44:54.986Z,20.63
2018-06-02T03:45:56.374Z,20.68
2018-06-02T03:46:57.769Z,20.54
2018-06-02T03:47:59.170Z,20.53
2018-06-02T03:49:00.556Z,20.53
2018-06-02T03:50:01.953Z,20.64
2018-06-02T03:51:03.342Z,20.60
2018-06-02T03:52:04.735Z,20.63
2018-06-02T03:53:06.119Z,20.66
2018-06-02T03:54:07.511Z,20.61
2018-06-02T03:55:08.906Z,20.71
2018-06-02T03:56:10.303Z,20.63
2018-06-02T03:57:11.691Z,20.63
2018-06-02T03:58:13.080Z,20.66
2018-06-02T03:59:14.482Z,20.66
2018-06-02T04:00:15.867Z,20.68
2018-06-02T04:01:17.251Z,20.76
2018-06-02T04:02:18.641Z,20.82
2018-06-02T04:03:20.039Z,20.82
2018-06-02T04:04:21.433Z,20.81
2018-06-02T04:05:22.827Z,20.87
2018-06-02T04:06:24.228Z,20.85
2018-06-02T04:07:25.617Z,20.85
2018-06-02T04:08:27.020Z,20.88
2018-06-02T04:09:28.412Z,20.83
2018-06-02T04:10:29.798Z,20.83
2018-06-02T04:11:31.190Z,20.93
2018-06-02T04:12:32.576Z,20.93
2018-06-02T04:13:33.966Z,21.01
2018-06-02T04:14:35.368Z,21.12
2018-06-02T04:15:36.755Z,21.05
2018-06-02T04:16:38.156Z,21.06
2018-06-02T04:17:39.546Z,21.12
2018-06-02T04:18:40.955Z,21.13
2018-06-02T04:19:42.342Z,21.19
2018-06-02T04:20:43.751Z,21.13
2018-06-02T04:21:45.133Z,21.21
2018-06-02T04:22:46.525Z,21.15
2018-06-02T04:23:48.548Z,21.26
2018-06-02T04:24:49.945Z,21.26
2018-06-02T04:25:51.341Z,21.37
2018-06-02T04:26:52.733Z,21.31
2018-06-02T04:27:54.121Z,21.42
2018-06-02T04:28:55.515Z,21.43
2018-06-02T04:29:56.913Z,21.51
2018-06-02T04:30:58.303Z,21.53
2018-06-02T04:31:59.698Z,21.61
2018-06-02T04:33:01.091Z,21.66
2018-06-02T04:34:02.471Z,21.70
2018-06-02T04:35:03.882Z,21.81
2018-06-02T04:36:05.269Z,21.83
2018-06-02T04:37:06.667Z,21.83
2018-06-02T04:38:08.047Z,21.90
2018-06-02T04:39:09.439Z,21.98
2018-06-02T04:40:10.836Z,22.04
2018-06-02T04:41:12.222Z,22.08
2018-06-02T04:42:13.628Z,22.08
2018-06-02T04:43:15.028Z,22.24
2018-06-02T04:44:16.409Z,22.24
2018-06-02T04:45:17.805Z,22.20
2018-06-02T04:46:19.202Z,22.29
2018-06-02T04:47:20.590Z,22.38
2018-06-02T04:48:21.993Z,22.45
2018-06-02T04:49:23.385Z,22.45
2018-06-02T04:50:24.774Z,22.52
2018-06-02T04:51:26.165Z,22.60
2018-06-02T04:52:27.561Z,22.67
2018-06-02T04:53:28.959Z,22.70
2018-06-02T04:54:30.351Z,22.74
2018-06-02T04:55:31.758Z,22.82
2018-06-02T04:56:33.149Z,22.85
2018-06-02T04:57:34.547Z,22.96
2018-06-02T04:58:35.934Z,22.97
2018-06-02T04:59:37.332Z,23.14
2018-06-02T05:00:38.734Z,23.19
2018-06-02T05:01:40.128Z,23.38
2018-06-02T05:02:41.524Z,23.42
2018-06-02T05:03:42.910Z,23.54
2018-06-02T05:04:44.319Z,23.59
2018-06-02T05:05:45.712Z,23.74
2018-06-02T05:06:47.102Z,23.71
2018-06-02T05:07:48.512Z,23.92
2018-06-02T05:08:49.907Z,23.93
2018-06-02T05:09:51.314Z,23.89
2018-06-02T05:10:52.714Z,23.96
2018-06-02T05:11:54.114Z,23.93
2018-06-02T05:12:56.037Z,24.11
2018-06-02T05:13:57.432Z,24.06
2018-06-02T05:14:58.829Z,24.12
2018-06-02T05:16:00.229Z,24.14
2018-06-02T05:17:01.637Z,24.11
2018-06-02T05:18:03.028Z,24.14
2018-06-02T05:19:04.425Z,24.09
2018-06-02T05:20:05.817Z,24.08
2018-06-02T05:21:07.212Z,24.08
2018-06-02T05:22:08.613Z,24.04
2018-06-02T05:23:10.014Z,24.02
2018-06-02T05:24:11.414Z,24.02
2018-06-02T05:25:12.805Z,24.00
2018-06-02T05:26:14.203Z,23.84
2018-06-02T05:27:15.601Z,23.81
2018-06-02T05:28:17.010Z,23.79
2018-06-02T05:29:18.403Z,23.63
2018-06-02T05:30:19.795Z,23.56
2018-06-02T05:31:21.187Z,23.60
2018-06-02T05:32:22.579Z,23.50
2018-06-02T05:33:23.978Z,23.59
2018-06-02T05:34:25.430Z,23.56
2018-06-02T05:35:26.767Z,23.57
2018-06-02T05:36:28.154Z,23.53
2018-06-02T05:37:29.563Z,23.45
2018-06-02T05:38:30.962Z,23.32
2018-06-02T05:39:32.365Z,23.38
2018-06-02T05:40:33.789Z,23.32
2018-06-02T05:41:35.151Z,23.25
2018-06-02T05:42:36.557Z,23.22
2018-06-02T05:43:37.962Z,23.16
2018-06-02T05:44:39.364Z,23.12
2018-06-02T05:45:40.762Z,23.06
2018-06-02T05:46:42.160Z,23.18
2018-06-02T05:47:43.552Z,23.00
2018-06-02T05:48:44.949Z,22.96
2018-06-02T05:49:46.353Z,23.01
2018-06-02T05:50:47.748Z,22.96
2018-06-02T05:51:49.137Z,22.84
2018-06-02T05:52:50.530Z,22.81
2018-06-02T05:53:51.919Z,22.75
2018-06-02T05:54:53.321Z,22.82
2018-06-02T05:55:54.728Z,22.84
2018-06-02T05:56:56.126Z,22.69
2018-06-02T05:57:57.521Z,22.75
2018-06-02T05:58:58.914Z,22.82
2018-06-02T06:00:00.350Z,22.82
2018-06-02T06:01:01.706Z,22.82
2018-06-02T06:02:03.088Z,22.74
2018-06-02T06:03:04.499Z,22.74
2018-06-02T06:04:05.903Z,22.75
2018-06-02T06:05:07.286Z,22.64
2018-06-02T06:06:08.685Z,22.66
2018-06-02T06:07:10.079Z,22.61
2018-06-02T06:08:11.482Z,22.67
2018-06-02T06:09:12.888Z,22.64
2018-06-02T06:10:15.056Z,22.57
2018-06-02T06:11:17.888Z,22.59
2018-06-02T06:12:19.275Z,22.60
2018-06-02T06:13:20.663Z,22.61
2018-06-02T06:14:22.067Z,22.67
2018-06-02T06:15:25.035Z,22.61
2018-06-02T06:16:26.439Z,22.59
2018-06-02T06:17:28.781Z,22.72
2018-06-02T06:18:30.176Z,22.67
2018-06-02T06:19:31.574Z,22.75
2018-06-02T06:20:32.977Z,22.79
2018-06-02T06:21:34.376Z,22.81
2018-06-02T06:22:35.772Z,22.88
2018-06-02T06:23:38.916Z,22.93
2018-06-02T06:24:40.302Z,22.93
2018-06-02T06:25:42.872Z,23.00
2018-06-02T06:26:44.843Z,23.01
2018-06-02T06:27:46.761Z,23.03
2018-06-02T06:28:48.159Z,23.12
2018-06-02T06:29:49.561Z,23.19
2018-06-02T06:30:50.952Z,23.16
2018-06-02T06:31:52.348Z,23.23
2018-06-02T06:32:53.824Z,23.32
2018-06-02T06:33:55.180Z,23.37
2018-06-02T06:34:56.580Z,23.31
2018-06-02T06:35:57.984Z,23.45
2018-06-02T06:36:59.387Z,23.42
2018-06-02T06:38:00.780Z,23.49
2018-06-02T06:39:02.177Z,23.50
2018-06-02T06:40:03.577Z,23.57
2018-06-02T06:41:04.966Z,23.56
2018-06-02T06:42:06.380Z,23.64
2018-06-02T06:43:07.757Z,23.68
2018-06-02T06:44:09.156Z,23.74
2018-06-02T06:45:10.548Z,23.81
2018-06-02T06:46:11.958Z,23.75
2018-06-02T06:47:13.349Z,23.89
2018-06-02T06:48:14.772Z,23.86
2018-06-02T06:49:16.175Z,23.86
2018-06-02T06:50:17.577Z,24.11
2018-06-02T06:51:18.973Z,24.34
2018-06-02T06:52:20.362Z,24.53
2018-06-02T06:53:22.359Z,24.70
2018-06-02T06:54:23.754Z,24.87
2018-06-02T06:55:25.147Z,24.93
2018-06-02T06:56:26.546Z,25.01
2018-06-02T06:57:27.950Z,25.01
2018-06-02T06:58:29.363Z,24.97
2018-06-02T06:59:30.775Z,25.07
2018-06-02T07:00:32.180Z,25.01
2018-06-02T07:01:33.579Z,24.94
2018-06-02T07:02:34.982Z,25.01
2018-06-02T07:03:36.395Z,25.07
2018-06-02T07:04:37.784Z,24.98
2018-06-02T07:05:39.172Z,24.99
2018-06-02T07:06:40.578Z,25.07
2018-06-02T07:07:41.975Z,25.05
2018-06-02T07:08:43.401Z,25.26
2018-06-02T07:09:45.596Z,25.30
2018-06-02T07:10:47.004Z,25.39
2018-06-02T07:11:48.454Z,25.41
2018-06-02T07:12:49.802Z,25.60
2018-06-02T07:13:51.194Z,25.69
2018-06-02T07:14:54.285Z,25.81
2018-06-02T07:15:55.692Z,25.71
2018-06-02T07:16:57.079Z,25.74
2018-06-02T07:17:58.480Z,25.67
2018-06-02T07:18:59.896Z,25.54
2018-06-02T07:20:01.290Z,25.56
2018-06-02T07:21:04.204Z,25.67
2018-06-02T07:22:05.598Z,25.61
2018-06-02T07:23:06.992Z,25.59
2018-06-02T07:24:08.393Z,25.57
2018-06-02T07:25:09.796Z,25.54
2018-06-02T07:26:12.562Z,25.69
2018-06-02T07:27:13.981Z,25.66
2018-06-02T07:28:15.381Z,25.82
2018-06-02T07:29:16.777Z,25.64
2018-06-02T07:30:18.202Z,25.81
2018-06-02T07:31:19.589Z,25.90
2018-06-02T07:32:20.991Z,25.90
2018-06-02T07:33:22.380Z,26.00
2018-06-02T07:34:23.779Z,26.11
2018-06-02T07:35:25.194Z,26.35
2018-06-02T07:36:26.586Z,26.49
2018-06-02T07:37:28.026Z,26.72
2018-06-02T07:38:29.418Z,26.86
2018-06-02T07:39:30.822Z,27.05
2018-06-02T07:40:32.218Z,26.93
2018-06-02T07:41:33.634Z,26.84
2018-06-02T07:42:35.022Z,26.69
2018-06-02T07:43:36.426Z,26.57
2018-06-02T07:44:37.823Z,26.46
2018-06-02T07:45:39.225Z,26.50
2018-06-02T07:46:40.630Z,26.36
2018-06-02T07:47:42.016Z,26.29
2018-06-02T07:48:43.419Z,26.27
2018-06-02T07:49:44.837Z,26.12
2018-06-02T07:50:46.243Z,25.93
2018-06-02T07:51:47.637Z,25.67
2018-06-02T07:52:49.042Z,25.54
2018-06-02T07:53:50.450Z,25.49
2018-06-02T07:54:51.849Z,25.42
2018-06-02T07:55:53.243Z,25.41
2018-06-02T07:56:54.645Z,25.41
2018-06-02T07:57:56.064Z,25.38
2018-06-02T07:58:57.507Z,25.35
2018-06-02T07:59:58.883Z,25.35
2018-06-02T08:01:00.300Z,25.23
2018-06-02T08:02:01.709Z,25.19
2018-06-02T08:03:03.119Z,25.04
2018-06-02T08:04:04.515Z,25.02
2018-06-02T08:05:06.476Z,25.04
2018-06-02T08:06:07.882Z,25.17
2018-06-02T08:07:09.289Z,25.02
2018-06-02T08:08:10.678Z,25.04
2018-06-02T08:09:12.071Z,25.02
2018-06-02T08:10:13.477Z,24.98
2018-06-02T08:11:14.930Z,25.01
2018-06-02T08:12:16.328Z,24.99
2018-06-02T08:13:17.720Z,24.89
2018-06-02T08:14:19.113Z,24.99
2018-06-02T08:15:20.518Z,24.98
2018-06-02T08:16:21.931Z,24.86
2018-06-02T08:17:23.332Z,24.84
2018-06-02T08:18:24.731Z,24.94
2018-06-02T08:19:26.137Z,24.89
2018-06-02T08:20:27.581Z,24.90
2018-06-02T08:21:28.938Z,24.86
2018-06-02T08:22:30.338Z,24.83
2018-06-02T08:23:31.725Z,24.90
2018-06-02T08:24:33.157Z,24.83
2018-06-02T08:25:34.552Z,24.80
2018-06-02T08:26:36.010Z,24.79
2018-06-02T08:27:37.354Z,24.83
2018-06-02T08:28:38.776Z,24.86
2018-06-02T08:29:40.165Z,24.90
2018-06-02T08:30:41.561Z,24.79
2018-06-02T08:31:42.979Z,24.74
2018-06-02T08:32:44.422Z,24.75
2018-06-02T08:33:47.954Z,24.75
2018-06-02T08:34:49.312Z,24.77
2018-06-02T08:35:50.721Z,24.84
2018-06-02T08:36:52.122Z,24.82
2018-06-02T08:37:53.521Z,24.77
2018-06-02T08:38:54.936Z,24.79
2018-06-02T08:39:56.310Z,24.80
2018-06-02T08:40:57.702Z,24.83
2018-06-02T08:41:59.115Z,24.90
2018-06-02T08:43:00.503Z,24.89
2018-06-02T08:44:01.904Z,24.90
2018-06-02T08:45:03.304Z,24.87
2018-06-02T08:46:04.714Z,24.89
2018-06-02T08:47:06.114Z,24.87
2018-06-02T08:48:07.522Z,24.89
2018-06-02T08:49:08.924Z,24.94
2018-06-02T08:50:10.334Z,24.92
2018-06-02T08:51:11.723Z,24.89
2018-06-02T08:52:13.131Z,24.90
2018-06-02T08:53:14.519Z,24.98
2018-06-02T08:54:15.918Z,24.92
2018-06-02T08:55:17.330Z,24.87
2018-06-02T08:56:18.723Z,24.94
2018-06-02T08:57:20.121Z,24.94
2018-06-02T08:58:22.004Z,24.97
2018-06-02T08:59:23.399Z,24.89
2018-06-02T09:00:24.874Z,25.04
2018-06-02T09:01:26.219Z,25.01
2018-06-02T09:02:27.641Z,25.02
2018-06-02T09:03:29.037Z,25.07
2018-06-02T09:04:30.434Z,25.16
2018-06-02T09:05:31.847Z,25.12
2018-06-02T09:06:33.308Z,25.16
2018-06-02T09:07:34.652Z,25.16
2018-06-02T09:08:36.048Z,25.17
2018-06-02T09:09:37.447Z,25.19
2018-06-02T09:10:38.841Z,25.20
2018-06-02T09:11:40.244Z,25.27
2018-06-02T09:12:41.636Z,25.30
2018-06-02T09:13:43.058Z,25.31
2018-06-02T09:14:44.450Z,25.19
2018-06-02T09:15:45.847Z,25.19
2018-06-02T09:16:47.240Z,25.23
2018-06-02T09:17:48.643Z,25.16
2018-06-02T09:18:50.053Z,25.23
2018-06-02T09:19:51.456Z,25.26
2018-06-02T09:20:52.863Z,25.23
2018-06-02T09:21:54.260Z,25.30
2018-06-02T09:22:55.661Z,25.19
2018-06-02T09:23:57.073Z,25.19
2018-06-02T09:24:58.471Z,25.16
2018-06-02T09:25:59.879Z,25.19
2018-06-02T09:27:01.315Z,25.16
2018-06-02T09:28:02.712Z,25.02
2018-06-02T09:29:04.110Z,25.01
2018-06-02T09:30:05.505Z,25.08
2018-06-02T09:31:06.906Z,25.05
2018-06-02T09:32:08.305Z,24.94
2018-06-02T09:33:09.708Z,24.92
2018-06-02T09:34:11.111Z,24.94
2018-06-02T09:35:12.549Z,24.87
2018-06-02T09:36:13.918Z,24.89
2018-06-02T09:37:15.326Z,24.98
2018-06-02T09:38:16.723Z,24.97
2018-06-02T09:39:18.114Z,24.97
2018-06-02T09:40:19.519Z,24.93
2018-06-02T09:41:20.913Z,24.94
2018-06-02T09:42:22.316Z,24.92
2018-06-02T09:43:23.715Z,25.02
2018-06-02T09:44:25.106Z,24.94
2018-06-02T09:45:26.508Z,25.01
2018-06-02T09:46:27.904Z,24.93
2018-06-02T09:47:29.300Z,25.07
2018-06-02T09:48:30.694Z,25.04
2018-06-02T09:49:32.106Z,25.07
2018-06-02T09:50:33.493Z,24.98
2018-06-02T09:51:34.893Z,25.11
2018-06-02T09:52:36.289Z,25.11
2018-06-02T09:53:37.695Z,25.19
2018-06-02T09:54:39.093Z,25.19
2018-06-02T09:55:40.523Z,25.16
2018-06-02T09:56:41.921Z,25.04
2018-06-02T09:57:43.363Z,25.12
2018-06-02T09:58:44.719Z,25.16
2018-06-02T09:59:46.119Z,24.99
2018-06-02T10:00:47.516Z,25.08
2018-06-02T10:01:48.909Z,25.01
2018-06-02T10:02:50.305Z,24.99
2018-06-02T10:03:51.700Z,24.99
2018-06-02T10:04:53.100Z,24.93
2018-06-02T10:05:54.496Z,24.97
2018-06-02T10:06:55.900Z,25.01
2018-06-02T10:07:57.295Z,24.93
2018-06-02T10:08:58.692Z,24.99
2018-06-02T10:10:00.096Z,24.90
2018-06-02T10:11:01.496Z,24.87
2018-06-02T10:12:02.895Z,24.89
2018-06-02T10:13:04.299Z,24.93
2018-06-02T10:14:05.705Z,24.90
2018-06-02T10:15:07.114Z,24.90
2018-06-02T10:16:08.511Z,24.87
2018-06-02T10:17:09.911Z,24.87
2018-06-02T10:18:11.311Z,24.83
2018-06-02T10:19:12.701Z,24.77
2018-06-02T10:20:14.103Z,24.74
2018-06-02T10:21:15.459Z,24.75
2018-06-02T10:22:16.864Z,24.71
2018-06-02T10:23:18.259Z,24.75
2018-06-02T10:24:19.650Z,24.74
2018-06-02T10:25:21.053Z,24.68
2018-06-02T10:26:22.463Z,24.71
2018-06-02T10:27:23.819Z,24.68
2018-06-02T10:28:25.231Z,24.60
2018-06-02T10:29:26.634Z,24.63
2018-06-02T10:30:28.029Z,24.61
2018-06-02T10:31:29.430Z,24.66
2018-06-02T10:32:30.816Z,24.63
2018-06-02T10:33:32.209Z,24.64
2018-06-02T10:34:33.614Z,24.61
2018-06-02T10:35:35.082Z,24.60
2018-06-02T10:36:36.412Z,24.60
2018-06-02T10:37:37.831Z,24.61
2018-06-02T10:38:39.220Z,24.61
2018-06-02T10:39:40.624Z,24.53
2018-06-02T10:40:42.021Z,24.49
2018-06-02T10:41:43.434Z,24.64
2018-06-02T10:42:44.824Z,24.60
2018-06-02T10:43:46.227Z,24.60
2018-06-02T10:44:47.628Z,24.59
2018-06-02T10:45:49.021Z,24.64
2018-06-02T10:46:50.434Z,24.67
2018-06-02T10:47:51.835Z,24.70
2018-06-02T10:48:53.255Z,24.61
2018-06-02T10:49:54.650Z,24.66
2018-06-02T10:50:56.054Z,24.71
2018-06-02T10:51:57.477Z,24.67
2018-06-02T10:52:58.885Z,24.63
2018-06-02T10:54:00.323Z,24.61
2018-06-02T10:55:01.723Z,24.77
2018-06-02T10:56:03.129Z,24.67
2018-06-02T10:57:04.533Z,24.74
2018-06-02T10:58:05.952Z,24.67
2018-06-02T10:59:07.352Z,24.77
2018-06-02T11:00:08.751Z,24.70
2018-06-02T11:01:10.155Z,24.77
2018-06-02T11:02:11.552Z,24.71
2018-06-02T11:03:12.962Z,24.75
2018-06-02T11:04:14.352Z,24.74
2018-06-02T11:05:15.720Z,24.80
2018-06-02T11:06:17.131Z,24.80
2018-06-02T11:07:18.550Z,24.82
2018-06-02T11:08:19.934Z,24.86
2018-06-02T11:09:21.350Z,24.79
2018-06-02T11:10:22.765Z,24.89
2018-06-02T11:11:24.160Z,24.80
2018-06-02T11:12:25.522Z,24.87
2018-06-02T11:13:26.928Z,24.87
2018-06-02T11:14:28.307Z,24.80
2018-06-02T11:15:29.650Z,24.90
2018-06-02T11:16:31.023Z,24.82
2018-06-02T11:17:32.415Z,24.82
2018-06-02T11:18:33.823Z,24.77
2018-06-02T11:19:35.290Z,24.75
2018-06-02T11:20:36.623Z,24.77
2018-06-02T11:21:38.031Z,24.82
2018-06-02T11:22:39.423Z,24.77
2018-06-02T11:23:40.822Z,24.87
2018-06-02T11:24:42.211Z,24.84
2018-06-02T11:25:43.618Z,24.87
2018-06-02T11:26:45.009Z,24.80
2018-06-02T11:27:46.413Z,24.87
2018-06-02T11:28:47.823Z,24.92
2018-06-02T11:29:49.228Z,24.97
2018-06-02T11:30:50.626Z,25.01
2018-06-02T11:31:52.036Z,24.86
2018-06-02T11:32:53.437Z,24.97
2018-06-02T11:33:54.843Z,24.94
2018-06-02T11:34:56.231Z,24.99
2018-06-02T11:35:57.628Z,25.02
2018-06-02T11:36:59.030Z,25.04
2018-06-02T11:38:00.422Z,25.07
2018-06-02T11:39:01.824Z,25.14
2018-06-02T11:40:03.224Z,25.19
2018-06-02T11:41:04.621Z,25.01
2018-06-02T11:42:06.019Z,25.14
2018-06-02T11:43:07.414Z,25.16
2018-06-02T11:44:08.874Z,25.14
2018-06-02T11:45:10.208Z,25.19
2018-06-02T11:46:11.610Z,25.23
2018-06-02T11:47:13.016Z,25.23
2018-06-02T11:48:14.405Z,25.23
2018-06-02T11:49:15.803Z,25.35
2018-06-02T11:50:17.214Z,25.35
2018-06-02T11:51:18.611Z,25.31
2018-06-02T11:52:20.025Z,25.30
2018-06-02T11:53:21.420Z,25.31
2018-06-02T11:54:22.821Z,25.39
2018-06-02T11:55:24.213Z,25.44
2018-06-02T11:56:25.617Z,25.41
2018-06-02T11:57:27.035Z,25.45
2018-06-02T11:58:28.431Z,25.46
2018-06-02T11:59:29.832Z,25.49
2018-06-02T12:00:31.239Z,25.59
2018-06-02T12:01:32.642Z,25.60
2018-06-02T12:02:34.041Z,25.69
2018-06-02T12:03:35.450Z,25.72
2018-06-02T12:04:36.856Z,25.94
2018-06-02T12:05:38.246Z,25.98
2018-06-02T12:06:39.659Z,26.03
2018-06-02T12:07:41.015Z,26.00
2018-06-02T12:08:42.424Z,26.08
2018-06-02T12:09:43.837Z,26.16
2018-06-02T12:10:45.236Z,26.16
2018-06-02T12:11:46.641Z,26.13
2018-06-02T12:12:48.051Z,26.21
2018-06-02T12:13:49.479Z,26.28
2018-06-02T12:14:50.865Z,26.23
2018-06-02T12:15:52.267Z,26.21
2018-06-02T12:16:53.675Z,26.24
2018-06-02T12:17:55.090Z,26.29
2018-06-02T12:18:56.485Z,26.27
2018-06-02T12:19:57.883Z,26.28
2018-06-02T12:20:59.280Z,26.16
2018-06-02T12:22:00.688Z,26.16
2018-06-02T12:23:02.074Z,26.13
2018-06-02T12:24:03.474Z,26.04
2018-06-02T12:25:05.487Z,26.03
2018-06-02T12:26:06.882Z,26.03
2018-06-02T12:27:08.288Z,26.00
2018-06-02T12:28:09.753Z,26.04
2018-06-02T12:29:11.098Z,25.97
2018-06-02T12:30:12.501Z,25.93
2018-06-02T12:31:13.906Z,26.00
2018-06-02T12:32:15.305Z,25.98
2018-06-02T12:33:16.713Z,26.08
2018-06-02T12:34:18.116Z,25.94
2018-06-02T12:35:19.524Z,26.01
2018-06-02T12:36:20.936Z,25.97
2018-06-02T12:37:22.334Z,25.98
2018-06-02T12:38:23.743Z,25.94
2018-06-02T12:39:25.153Z,26.03
2018-06-02T12:40:26.580Z,25.97
2018-06-02T12:41:28.273Z,26.01
2018-06-02T12:42:30.446Z,26.08
2018-06-02T12:43:31.842Z,26.00
2018-06-02T12:44:33.237Z,25.96
2018-06-02T12:45:34.641Z,25.93
2018-06-02T12:46:36.029Z,25.98
2018-06-02T12:47:37.497Z,25.94
2018-06-02T12:48:38.838Z,25.93
2018-06-02T12:49:40.244Z,26.00
2018-06-02T12:50:41.651Z,26.00
2018-06-02T12:51:43.046Z,26.00
2018-06-02T12:52:44.442Z,25.97
2018-06-02T12:53:45.836Z,26.00
2018-06-02T12:54:47.245Z,26.06
2018-06-02T12:55:48.640Z,26.09
2018-06-02T12:56:50.038Z,26.11
2018-06-02T12:57:51.429Z,26.20
2018-06-02T12:58:52.825Z,26.21
2018-06-02T12:59:54.240Z,26.21
2018-06-02T13:00:55.647Z,26.24
2018-06-02T13:01:57.053Z,26.27
2018-06-02T13:02:58.451Z,26.34
2018-06-02T13:03:59.867Z,26.42
2018-06-02T13:05:01.251Z,26.42
2018-06-02T13:06:02.668Z,26.47
2018-06-02T13:07:04.077Z,26.57
2018-06-02T13:08:05.479Z,26.47
2018-06-02T13:09:06.877Z,26.53
2018-06-02T13:10:08.271Z,26.41
2018-06-02T13:11:09.673Z,26.57